createdAt,value
2018-11-03T00:03:33.832Z,5.23
2018-11-03T00:08:38.857Z,4.63
2018-11-03T00:14:00.284Z,4.87
2018-11-03T00:19:05.846Z,4.90
2018-11-03T00:24:11.108Z,5.40
2018-11-03T00:29:21.162Z,5.60
2018-11-03T00:34:26.411Z,7.53
2018-11-03T00:39:33.798Z,7.50
2018-11-03T00:44:39.328Z,8.93
2018-11-03T00:49:44.575Z,9.00
2018-11-03T00:54:50.115Z,7.53
2018-11-03T01:00:00.191Z,10.07
2018-11-03T01:05:11.579Z,9.50
2018-11-03T01:10:18.981Z,9.97
2018-11-03T01:15:33.953Z,10.77
2018-11-03T01:20:40.605Z,11.03
2018-11-03T01:25:49.797Z,10.67
2018-11-03T01:30:55.982Z,10.53
2018-11-03T01:36:07.512Z,10.47
2018-11-03T01:41:13.264Z,10.67
2018-11-03T01:46:21.393Z,11.47
2018-11-03T01:51:31.666Z,10.70
2018-11-03T01:56:36.709Z,10.83
2018-11-03T02:01:41.670Z,10.63
2018-11-03T02:06:46.536Z,9.90
2018-11-03T02:11:51.486Z,9.17
2018-11-03T02:16:56.593Z,9.37
2018-11-03T02:22:01.573Z,9.67
2018-11-03T02:27:06.560Z,9.20
2018-11-03T02:32:11.525Z,9.37
2018-11-03T02:37:16.507Z,9.23
2018-11-03T02:42:21.346Z,9.60
2018-11-03T02:47:26.304Z,10.13
2018-11-03T02:52:31.149Z,10.00
2018-11-03T02:57:36.169Z,10.20
2018-11-03T03:02:41.272Z,10.73
2018-11-03T03:07:46.387Z,11.23
2018-11-03T03:12:51.385Z,11.33
2018-11-03T03:17:56.237Z,11.90
2018-11-03T03:23:01.131Z,11.23
2018-11-03T03:28:06.667Z,11.10
2018-11-03T03:33:11.901Z,11.20
2018-11-03T03:38:17.017Z,10.97
2018-11-03T03:43:21.958Z,10.70
2018-11-03T03:48:27.020Z,11.53
2018-11-03T03:53:31.938Z,10.07
2018-11-03T03:58:36.864Z,9.97
2018-11-03T04:03:42.194Z,9.93
2018-11-03T04:08:47.236Z,10.23
2018-11-03T04:13:52.149Z,10.20
2018-11-03T04:18:57.076Z,9.83
2018-11-03T04:24:02.207Z,9.43
2018-11-03T04:29:07.265Z,9.07
2018-11-03T04:34:12.380Z,9.10
2018-11-03T04:39:17.374Z,9.17
2018-11-03T04:44:22.487Z,8.93
2018-11-03T04:49:27.516Z,8.13
2018-11-03T04:54:32.517Z,8.70
2018-11-03T04:59:37.406Z,9.53
2018-11-03T05:04:42.661Z,8.47
2018-11-03T05:09:47.597Z,7.73
2018-11-03T05:14:52.470Z,6.90
2018-11-03T05:19:57.433Z,7.17
2018-11-03T05:25:02.362Z,7.00
2018-11-03T05:30:07.860Z,6.87
2018-11-03T05:35:13.039Z,7.70
2018-11-03T05:40:17.977Z,7.40
2018-11-03T05:45:22.860Z,6.87
2018-11-03T05:50:27.748Z,6.43
2018-11-03T05:55:32.726Z,7.03
2018-11-03T06:00:37.693Z,7.43
2018-11-03T06:05:42.703Z,7.90
2018-11-03T06:10:53.945Z,7.43
2018-11-03T06:15:59.020Z,8.87
2018-11-03T06:21:04.018Z,7.80
2018-11-03T06:26:09.176Z,7.70
2018-11-03T06:31:14.057Z,8.60
2018-11-03T06:36:19.044Z,7.70
2018-11-03T06:41:24.160Z,6.50
2018-11-03T06:46:29.205Z,6.77
2018-11-03T06:51:34.112Z,7.03
2018-11-03T06:56:39.082Z,6.77
2018-11-03T07:01:44.017Z,6.37
2018-11-03T07:06:49.025Z,6.60
2018-11-03T07:11:53.924Z,6.20
2018-11-03T07:16:59.094Z,6.10
2018-11-03T07:22:04.078Z,5.87
2018-11-03T07:27:08.970Z,6.37
2018-11-03T07:32:13.937Z,7.43
2018-11-03T07:37:19.063Z,7.20
2018-11-03T07:42:24.338Z,7.10
2018-11-03T07:47:29.309Z,5.90
2018-11-03T07:52:34.244Z,5.90
2018-11-03T07:57:39.266Z,5.13
2018-11-03T08:02:44.224Z,4.17
2018-11-03T08:07:49.184Z,4.67
2018-11-03T08:12:54.242Z,5.40
2018-11-03T08:17:59.276Z,5.60
2018-11-03T08:23:04.164Z,4.73
2018-11-03T08:28:09.179Z,5.50
2018-11-03T08:33:14.226Z,5.37
2018-11-03T08:38:19.105Z,4.83
2018-11-03T08:43:24.099Z,4.47
2018-11-03T08:48:29.035Z,4.77
2018-11-03T08:53:34.123Z,4.17
2018-11-03T08:58:39.080Z,4.50
2018-11-03T09:03:43.956Z,3.93
2018-11-03T09:08:48.991Z,4.10
2018-11-03T09:13:53.960Z,3.83
2018-11-03T09:18:59.390Z,4.07
2018-11-03T09:24:04.340Z,3.50
2018-11-03T09:29:09.342Z,4.07
2018-11-03T09:34:14.287Z,4.10
2018-11-03T09:39:19.412Z,3.83
2018-11-03T09:44:24.247Z,3.80
2018-11-03T09:49:29.159Z,4.50
2018-11-03T09:54:34.123Z,4.10
2018-11-03T09:59:39.158Z,4.53
2018-11-03T10:04:44.128Z,4.10
2018-11-03T10:09:49.145Z,3.87
2018-11-03T10:14:54.046Z,3.93
2018-11-03T10:19:58.956Z,4.30
2018-11-03T10:25:04.046Z,3.67
2018-11-03T10:30:10.304Z,3.13
2018-11-03T10:35:15.631Z,3.50
2018-11-03T10:40:20.753Z,3.10
2018-11-03T10:45:25.854Z,3.73
2018-11-03T10:50:30.755Z,4.47
2018-11-03T10:55:35.631Z,3.10
2018-11-03T11:00:45.625Z,5.20
2018-11-03T11:05:57.394Z,3.20
2018-11-03T11:11:07.624Z,3.20
2018-11-03T11:16:12.756Z,3.67
2018-11-03T11:21:17.779Z,3.50
2018-11-03T11:26:23.486Z,2.90
2018-11-03T11:31:28.411Z,4.43
2018-11-03T11:36:33.387Z,3.90
2018-11-03T11:41:38.417Z,3.73
2018-11-03T11:46:43.492Z,4.53
2018-11-03T11:51:48.466Z,3.87
2018-11-03T11:56:53.397Z,3.90
2018-11-03T12:01:58.386Z,5.53
2018-11-03T12:07:03.426Z,4.17
2018-11-03T12:12:08.384Z,3.37
2018-11-03T12:17:13.396Z,3.63
2018-11-03T12:22:18.385Z,3.40
2018-11-03T12:27:23.387Z,3.50
2018-11-03T12:32:28.762Z,10.97
2018-11-03T12:37:33.768Z,3.43
2018-11-03T12:42:38.778Z,3.07
2018-11-03T12:47:43.735Z,3.30
2018-11-03T12:52:48.759Z,3.47
2018-11-03T12:57:53.811Z,3.57
2018-11-03T13:02:58.750Z,3.17
2018-11-03T13:08:03.765Z,3.67
2018-11-03T13:13:08.924Z,3.90
2018-11-03T13:18:15.285Z,4.27
2018-11-03T13:23:20.941Z,4.17
2018-11-03T13:28:25.947Z,3.57
2018-11-03T13:33:30.889Z,4.03
2018-11-03T13:38:35.792Z,3.90
2018-11-03T13:43:40.699Z,3.20
2018-11-03T13:48:45.675Z,3.50
2018-11-03T13:53:50.824Z,3.40
2018-11-03T13:58:56.012Z,3.60
2018-11-03T14:04:01.768Z,2.70
2018-11-03T14:09:08.370Z,2.57
2018-11-03T14:14:13.366Z,3.90
2018-11-03T14:19:18.503Z,6.63
2018-11-03T14:24:23.450Z,3.37
2018-11-03T14:29:28.509Z,3.33
2018-11-03T14:34:33.990Z,3.87
2018-11-03T14:39:39.092Z,4.80
2018-11-03T14:44:44.271Z,5.73
2018-11-03T14:49:49.479Z,4.03
2018-11-03T14:54:54.348Z,4.50
2018-11-03T14:59:59.392Z,4.90
2018-11-03T15:05:04.480Z,5.10
2018-11-03T15:10:10.800Z,5.60
2018-11-03T15:15:19.378Z,12.73
2018-11-03T15:20:24.382Z,6.63
2018-11-03T15:25:29.299Z,16.63
2018-11-03T15:30:34.405Z,5.50
2018-11-03T15:35:39.273Z,6.63
2018-11-03T15:40:44.217Z,7.07
2018-11-03T15:45:49.430Z,5.80
2018-11-03T15:50:54.479Z,5.97
2018-11-03T15:55:59.449Z,5.97
2018-11-03T16:01:04.521Z,7.33
2018-11-03T16:06:09.537Z,6.47
2018-11-03T16:11:14.612Z,6.80
2018-11-03T16:16:19.839Z,7.20
2018-11-03T16:21:24.812Z,7.07
2018-11-03T16:26:29.961Z,9.13
2018-11-03T16:31:35.115Z,9.20
2018-11-03T16:36:40.193Z,12.27
2018-11-03T16:41:45.156Z,13.40
2018-11-03T16:46:50.564Z,10.67
2018-11-03T16:51:55.710Z,8.37
2018-11-03T16:57:00.649Z,8.80
2018-11-03T17:02:06.013Z,17.87
2018-11-03T17:07:10.891Z,12.10
2018-11-03T17:12:16.063Z,10.13
2018-11-03T17:17:21.003Z,15.50
2018-11-03T17:22:26.016Z,14.13
2018-11-03T17:27:31.105Z,15.60
2018-11-03T17:32:36.056Z,12.80
2018-11-03T17:37:41.236Z,10.07
2018-11-03T17:42:46.326Z,9.07
2018-11-03T17:47:51.324Z,8.57
2018-11-03T17:52:56.374Z,8.27
2018-11-03T17:58:01.407Z,15.97
2018-11-03T18:03:06.823Z,8.43
2018-11-03T18:08:11.707Z,11.30
2018-11-03T18:13:16.908Z,12.47
2018-11-03T18:18:21.815Z,11.17
2018-11-03T18:23:26.768Z,8.27
2018-11-03T18:28:31.757Z,9.13
2018-11-03T18:33:36.677Z,10.83
2018-11-03T18:38:41.648Z,7.93
2018-11-03T18:43:46.707Z,6.90
2018-11-03T18:48:51.657Z,6.57
2018-11-03T18:53:56.691Z,8.20
2018-11-03T18:59:01.905Z,8.50
2018-11-03T19:04:07.792Z,9.70
2018-11-03T19:09:13.231Z,8.43
2018-11-03T19:14:18.433Z,8.63
2018-11-03T19:19:24.757Z,8.13
2018-11-03T19:24:30.688Z,8.77
2018-11-03T19:29:37.329Z,7.33
2018-11-03T19:34:42.353Z,7.73
2018-11-03T19:39:47.534Z,7.70
2018-11-03T19:44:52.532Z,5.93
2018-11-03T19:49:58.501Z,6.03
2018-11-03T19:55:03.623Z,8.50
2018-11-03T20:00:11.527Z,8.80
2018-11-03T20:05:17.326Z,8.03
2018-11-03T20:10:22.920Z,6.10
2018-11-03T20:15:27.830Z,6.37
2018-11-03T20:20:32.889Z,5.27
2018-11-03T20:25:39.026Z,7.83
2018-11-03T20:30:44.008Z,6.20
2018-11-03T20:35:48.946Z,6.00
2018-11-03T20:40:53.781Z,5.87
2018-11-03T20:45:59.529Z,6.10
2018-11-03T20:51:11.116Z,7.13
2018-11-03T20:56:16.161Z,11.43
2018-11-03T21:01:21.104Z,6.93
2018-11-03T21:06:26.073Z,5.97
2018-11-03T21:11:31.317Z,5.67
2018-11-03T21:16:36.291Z,7.10
2018-11-03T21:21:41.663Z,3.93
2018-11-03T21:26:46.736Z,4.53
2018-11-03T21:31:51.690Z,4.97
2018-11-03T21:36:57.441Z,9.53
2018-11-03T21:42:02.534Z,5.33
2018-11-03T21:47:07.533Z,5.30
2018-11-03T21:52:12.519Z,4.33
2018-11-03T21:57:17.550Z,5.27
2018-11-03T22:02:22.645Z,6.00
2018-11-03T22:07:27.606Z,4.70
2018-11-03T22:12:32.619Z,4.53
2018-11-03T22:17:37.778Z,4.50
2018-11-03T22:22:42.969Z,4.97
2018-11-03T22:27:48.082Z,4.83
2018-11-03T22:32:53.545Z,4.83
2018-11-03T22:37:58.442Z,5.00
2018-11-03T22:43:03.668Z,4.63
2018-11-03T22:48:08.559Z,4.53
2018-11-03T22:53:16.532Z,4.57
2018-11-03T22:58:21.471Z,4.87
2018-11-03T23:03:27.094Z,4.60
2018-11-03T23:08:36.960Z,5.00
2018-11-03T23:13:42.052Z,5.17
2018-11-03T23:18:46.996Z,4.90
2018-11-03T23:23:51.974Z,5.70
2018-11-03T23:28:56.882Z,5.57
2018-11-03T23:34:01.824Z,5.70
2018-11-03T23:39:09.381Z,6.70
2018-11-03T23:44:14.441Z,6.53
2018-11-03T23:49:19.419Z,5.60
2018-11-03T23:54:30.719Z,5.70
2018-11-03T23:59:35.805Z,5.43
